Time;durP1;ratioP1;P1;durP2;ratioP2;P2;SDS_P1;SDS_P2;PMS_P1;PMS_P2;Temp;Humidity;BMP_temperature;BMP_pressure;BME280_temperature;BME280_humidity;BME280_pressure;Samples;Min_cycle;Max_cycle;Signal;HPM_P1;HPM_P2
2021/10/04 06:02:23;;;;;;;;;;;11.60;99.90;;;;;;4999710;23;20729;-82
2021/10/04 06:04:50;;;;;;;;;;;11.60;99.90;;;;;;4916366;29;20010;-85
2021/10/04 06:07:17;;;;;;;;;;;11.60;99.90;;;;;;4915461;29;19971;-82
2021/10/04 06:09:43;;;;;;;;;;;11.60;99.90;;;;;;4915357;29;19923;-82
2021/10/04 06:12:10;;;;;;;;;;;11.60;99.90;;;;;;4915474;29;19923;-80
2021/10/04 06:14:37;;;;;;;;;;;11.60;99.90;;;;;;4916144;29;19927;-82
2021/10/04 06:17:04;;;;;;;;;;;11.70;99.90;;;;;;4904473;29;19923;-83
2021/10/04 06:19:31;;;;;;;;;;;11.70;99.90;;;;;;4901956;29;19946;-82
2021/10/04 06:21:57;;;;;;;;;;;11.70;99.90;;;;;;4915310;29;19922;-83
2021/10/04 06:24:24;;;;;;;;;;;11.70;99.90;;;;;;4909422;29;19927;-83
2021/10/04 06:26:51;;;;;;;;;;;11.60;99.90;;;;;;4906074;29;19923;-83
2021/10/04 06:29:18;;;;;;;;;;;11.60;99.90;;;;;;4915517;29;19923;-83
2021/10/04 06:31:44;;;;;;;;;;;11.60;99.90;;;;;;4900438;29;19923;-83
2021/10/04 06:34:12;;;;;;;;;;;11.60;99.90;;;;;;4914141;29;19923;-82
2021/10/04 06:36:38;;;;;;;;;;;11.60;99.90;;;;;;4914200;29;19923;-84
2021/10/04 06:39:05;;;;;;;;;;;11.60;99.90;;;;;;4911708;29;20383;-84
2021/10/04 06:41:32;;;;;;;;;;;11.60;99.90;;;;;;4903638;29;20013;-84
2021/10/04 06:43:59;;;;;;;;;;;11.60;99.90;;;;;;4899042;29;19974;-84
2021/10/04 06:46:25;;;;;;;;;;;11.60;99.90;;;;;;4901213;29;19923;-84
2021/10/04 06:48:52;;;;;;;;;;;11.60;99.90;;;;;;4904307;29;20398;-84
2021/10/04 06:51:19;;;;;;;;;;;11.70;99.90;;;;;;4903862;29;20456;-83
2021/10/04 06:53:46;;;;;;;;;;;11.70;99.90;;;;;;4904274;29;19923;-84
2021/10/04 06:56:13;;;;;;;;;;;11.80;99.90;;;;;;4899459;29;19931;-84
2021/10/04 06:58:40;;;;;;;;;;;11.90;99.90;;;;;;4900375;29;19928;-84
2021/10/04 07:01:07;;;;;;;;;;;12.00;99.90;;;;;;4902648;29;19924;-84
2021/10/04 07:03:34;;;;;;;;;;;12.10;99.90;;;;;;4911021;29;20416;-84
2021/10/04 07:06:01;;;;;;;;;;;12.20;99.90;;;;;;4915001;29;19996;-84
2021/10/04 07:08:28;;;;;;;;;;;12.30;99.90;;;;;;4913929;29;20344;-84
2021/10/04 07:10:54;;;;;;;;;;;12.30;99.90;;;;;;4899670;29;20361;-84
2021/10/04 07:13:22;;;;;;;;;;;12.40;99.90;;;;;;4901764;29;19971;-84
2021/10/04 07:15:48;;;;;;;;;;;12.50;99.90;;;;;;4903855;29;19923;-84
2021/10/04 07:18:16;;;;;;;;;;;12.50;99.90;;;;;;4902320;29;19923;-84
2021/10/04 07:20:43;;;;;;;;;;;12.60;99.90;;;;;;4903943;29;20291;-84
2021/10/04 07:23:09;;;;;;;;;;;12.60;99.90;;;;;;4899646;29;19983;-84
2021/10/04 07:25:36;;;;;;;;;;;12.70;99.90;;;;;;4900245;29;20273;-84
2021/10/04 07:28:03;;;;;;;;;;;12.70;99.90;;;;;;4914609;29;19971;-84
2021/10/04 07:30:56;;;;;;;;;;;12.80;99.90;;;;;;4904122;29;20040;-84
2021/10/04 07:33:24;;;;;;;;;;;12.90;99.90;;;;;;4907901;29;19978;-84
2021/10/04 07:35:51;;;;;;;;;;;12.90;99.90;;;;;;4912065;29;19986;-84
2021/10/04 07:38:18;;;;;;;;;;;13.00;99.90;;;;;;4899314;29;20592;-84
2021/10/04 07:40:45;;;;;;;;;;;13.00;99.90;;;;;;4914130;29;20025;-83
2021/10/04 07:43:12;;;;;;;;;;;13.10;99.90;;;;;;4914157;29;19951;-83
2021/10/04 07:45:38;;;;;;;;;;;13.20;99.90;;;;;;4914014;29;19987;-83
2021/10/04 07:48:05;;;;;;;;;;;13.30;99.90;;;;;;4913752;29;20001;-84
2021/10/04 07:50:32;;;;;;;;;;;13.30;99.90;;;;;;4914161;29;19927;-83
2021/10/04 07:52:59;;;;;;;;;;;13.40;99.90;;;;;;4914491;29;19935;-83
2021/10/04 07:55:26;;;;;;;;;;;13.60;99.90;;;;;;4913963;29;19927;-84
2021/10/04 07:57:53;;;;;;;;;;;13.70;99.90;;;;;;4914082;29;19923;-84
2021/10/04 08:00:20;;;;;;;;;;;13.80;99.90;;;;;;4912895;29;19951;-85
2021/10/04 08:02:47;;;;;;;;;;;13.90;99.90;;;;;;4913903;29;19988;-85
2021/10/04 08:05:14;;;;;;;;;;;14.00;99.90;;;;;;4911671;29;19933;-86
2021/10/04 08:07:41;;;;;;;;;;;14.20;99.90;;;;;;4912388;29;19979;-85
2021/10/04 08:10:08;;;;;;;;;;;14.20;99.90;;;;;;4917753;29;19927;-85
2021/10/04 08:12:35;;;;;;;;;;;14.30;99.90;;;;;;4916675;29;19927;-85
2021/10/04 08:15:04;;;;;;;;;;;14.40;99.90;;;;;;4915049;29;19975;-84
2021/10/04 08:17:31;;;;;;;;;;;14.50;99.90;;;;;;4905769;29;20403;-85
2021/10/04 08:19:58;;;;;;;;;;;14.70;99.90;;;;;;4918166;29;19931;-86
2021/10/04 08:22:26;;;;;;;;;;;14.80;99.90;;;;;;4917827;29;20427;-84
2021/10/04 08:24:54;;;;;;;;;;;14.90;99.90;;;;;;4917930;29;19923;-85
2021/10/04 08:27:20;;;;;;;;;;;15.00;99.90;;;;;;4911761;29;19975;-85
2021/10/04 08:29:47;;;;;;;;;;;15.00;99.90;;;;;;4907681;29;19923;-85
2021/10/04 08:32:14;;;;;;;;;;;15.10;99.90;;;;;;4916705;29;20355;-85
2021/10/04 08:34:41;;;;;;;;;;;15.10;99.90;;;;;;4902601;29;19924;-84
2021/10/04 08:37:08;;;;;;;;;;;15.10;99.90;;;;;;4917305;29;19974;-84
2021/10/04 08:39:34;;;;;;;;;;;15.20;99.90;;;;;;4917461;29;19923;-86
2021/10/04 08:42:01;;;;;;;;;;;15.40;99.90;;;;;;4906467;29;19923;-85
2021/10/04 08:44:29;;;;;;;;;;;15.50;99.90;;;;;;4903083;29;19974;-86
2021/10/04 08:46:55;;;;;;;;;;;15.60;99.90;;;;;;4915971;29;19927;-84
2021/10/04 08:49:23;;;;;;;;;;;15.60;99.90;;;;;;4917055;29;19923;-86
2021/10/04 08:51:50;;;;;;;;;;;15.60;99.90;;;;;;4917230;29;19927;-86
2021/10/04 08:54:24;;;;;;;;;;;15.70;99.90;;;;;;4914959;29;19979;-85
2021/10/04 08:56:52;;;;;;;;;;;15.70;99.90;;;;;;4913858;29;19927;-84
2021/10/04 08:59:18;;;;;;;;;;;15.80;99.90;;;;;;4901489;29;19923;-84
2021/10/04 09:01:46;;;;;;;;;;;15.90;99.90;;;;;;4916273;29;19994;-84
2021/10/04 09:04:17;;;;;;;;;;;16.00;99.90;;;;;;4916590;29;19931;-82
2021/10/04 09:06:44;;;;;;;;;;;16.00;99.90;;;;;;4917080;29;19955;-84
2021/10/04 09:09:12;;;;;;;;;;;16.10;99.90;;;;;;4916847;29;19923;-84
2021/10/04 09:11:43;;;;;;;;;;;16.10;99.90;;;;;;4915046;29;19982;-83
2021/10/04 09:14:11;;;;;;;;;;;16.10;99.90;;;;;;4915515;29;19923;-85
2021/10/04 09:17:08;;;;;;;;;;;16.10;99.90;;;;;;4917327;29;19923;-83
2021/10/04 09:19:35;;;;;;;;;;;16.10;99.90;;;;;;4889216;29;19927;-83
2021/10/04 09:22:21;;;;;;;;;;;16.00;99.90;;;;;;4914900;29;19923;-85
2021/10/04 09:24:48;;;;;;;;;;;16.00;99.90;;;;;;4917094;29;19923;-85
2021/10/04 09:27:24;;;;;;;;;;;16.10;99.90;;;;;;4916302;29;19927;-85
2021/10/04 09:29:51;;;;;;;;;;;16.20;99.90;;;;;;4915276;29;20261;-85
2021/10/04 09:32:21;;;;;;;;;;;16.30;99.90;;;;;;4900277;29;19923;-83
2021/10/04 09:34:48;;;;;;;;;;;16.30;99.90;;;;;;4901073;29;19923;-84
2021/10/04 09:37:23;;;;;;;;;;;16.30;99.90;;;;;;4916132;29;19958;-83
2021/10/04 09:39:51;;;;;;;;;;;16.30;99.90;;;;;;4916221;29;19923;-83
2021/10/04 09:42:18;;;;;;;;;;;16.30;99.90;;;;;;4915394;29;19986;-83
2021/10/04 09:44:58;;;;;;;;;;;16.20;99.90;;;;;;4914985;29;20454;-83
2021/10/04 09:47:28;;;;;;;;;;;16.20;99.90;;;;;;4916272;29;19974;-83
2021/10/04 09:49:56;;;;;;;;;;;16.20;99.90;;;;;;4915497;29;20172;-85
2021/10/04 09:52:34;;;;;;;;;;;16.30;99.90;;;;;;4902660;29;19927;-83
2021/10/04 09:55:01;;;;;;;;;;;16.40;99.90;;;;;;4914167;29;19931;-82
2021/10/04 09:57:28;;;;;;;;;;;16.40;99.90;;;;;;4915769;29;20447;-84
2021/10/04 09:59:55;;;;;;;;;;;16.40;99.90;;;;;;4916249;29;19959;-82
2021/10/04 10:02:22;;;;;;;;;;;16.40;99.90;;;;;;4915070;29;19923;-85
2021/10/04 10:04:51;;;;;;;;;;;16.50;99.90;;;;;;4899711;29;19924;-84
2021/10/04 10:07:18;;;;;;;;;;;16.50;99.90;;;;;;4915747;29;19930;-85
2021/10/04 10:09:45;;;;;;;;;;;16.50;99.90;;;;;;4916300;29;20392;-84
2021/10/04 10:12:12;;;;;;;;;;;16.60;99.90;;;;;;4915153;29;20349;-85
2021/10/04 10:14:39;;;;;;;;;;;16.60;99.90;;;;;;4911334;29;19970;-85
2021/10/04 10:17:08;;;;;;;;;;;16.60;99.90;;;;;;4899122;29;19960;-83
2021/10/04 10:19:36;;;;;;;;;;;16.60;99.90;;;;;;4912293;29;20029;-83
2021/10/04 10:22:09;;;;;;;;;;;16.60;99.90;;;;;;4914002;29;19978;-86
2021/10/04 10:24:36;;;;;;;;;;;16.50;99.90;;;;;;4916722;29;19975;-85
2021/10/04 10:27:05;;;;;;;;;;;16.50;99.90;;;;;;4915487;29;20045;-84
2021/10/04 10:29:35;;;;;;;;;;;16.50;99.90;;;;;;4916185;29;20340;-85
2021/10/04 10:32:03;;;;;;;;;;;16.60;99.90;;;;;;4913819;29;19923;-85
2021/10/04 10:34:33;;;;;;;;;;;16.70;99.90;;;;;;4915174;29;19929;-86
2021/10/04 10:37:00;;;;;;;;;;;16.90;99.90;;;;;;4916449;29;19923;-86
2021/10/04 10:39:41;;;;;;;;;;;17.00;99.90;;;;;;4915195;29;20284;-86
2021/10/04 10:42:09;;;;;;;;;;;17.20;99.90;;;;;;4913394;29;19923;-87
2021/10/04 10:44:55;;;;;;;;;;;17.20;99.90;;;;;;4915088;29;19966;-85
2021/10/04 10:47:37;;;;;;;;;;;17.30;99.90;;;;;;4914317;29;19923;-83
2021/10/04 10:50:07;;;;;;;;;;;17.30;99.90;;;;;;4915853;29;19971;-86
2021/10/04 10:52:47;;;;;;;;;;;17.30;99.90;;;;;;4915285;29;19930;-84
2021/10/04 10:55:35;;;;;;;;;;;17.30;99.90;;;;;;4914358;29;19971;-84
2021/10/04 10:58:04;;;;;;;;;;;17.30;99.90;;;;;;4911401;29;19974;-86
2021/10/04 11:00:59;;;;;;;;;;;17.40;99.90;;;;;;4914705;29;19927;-86
2021/10/04 11:03:29;;;;;;;;;;;17.40;99.90;;;;;;4913450;29;20030;-85
2021/10/04 11:06:06;;;;;;;;;;;17.40;99.90;;;;;;4914831;29;19927;-84
2021/10/04 11:08:39;;;;;;;;;;;17.50;99.90;;;;;;4910031;29;19927;-87
2021/10/04 11:11:06;;;;;;;;;;;17.50;99.90;;;;;;4920920;29;19926;-85
2021/10/04 11:13:34;;;;;;;;;;;17.50;99.90;;;;;;4912606;29;19923;-89
2021/10/04 11:16:04;;;;;;;;;;;17.50;99.90;;;;;;4913416;29;19986;-88
2021/10/04 11:18:37;;;;;;;;;;;17.50;99.90;;;;;;4909643;29;19937;-87
2021/10/04 11:21:06;;;;;;;;;;;17.50;99.90;;;;;;4909805;29;19923;-85
2021/10/04 11:23:48;;;;;;;;;;;17.40;99.90;;;;;;4908092;29;19927;-91
2021/10/04 11:26:20;;;;;;;;;;;17.50;99.90;;;;;;4920269;29;20021;-89
2021/10/04 11:28:48;;;;;;;;;;;17.50;99.90;;;;;;4934576;29;20053;-88
2021/10/04 11:31:16;;;;;;;;;;;17.60;99.90;;;;;;4916145;29;19978;-89
2021/10/04 11:33:46;;;;;;;;;;;17.70;99.90;;;;;;4915082;29;19923;-89
2021/10/04 11:36:13;;;;;;;;;;;17.80;99.90;;;;;;4927331;29;19926;-89
2021/10/04 11:38:46;;;;;;;;;;;17.80;99.90;;;;;;4927508;29;19930;-90
2021/10/04 11:41:13;;;;;;;;;;;17.80;99.90;;;;;;4917994;29;19923;-89
2021/10/04 11:43:41;;;;;;;;;;;17.70;99.90;;;;;;4934793;29;19923;-90
2021/10/04 11:46:17;;;;;;;;;;;17.80;99.90;;;;;;4915419;29;19927;-91
2021/10/04 11:48:45;;;;;;;;;;;17.80;99.90;;;;;;4900142;29;19927;-88
2021/10/04 11:51:26;;;;;;;;;;;17.80;99.90;;;;;;4907274;29;19927;-90
2021/10/04 11:53:53;;;;;;;;;;;17.80;99.90;;;;;;4925213;29;19926;-90
2021/10/04 11:56:21;;;;;;;;;;;17.80;99.90;;;;;;4929507;29;20380;-89
2021/10/04 11:58:49;;;;;;;;;;;17.80;99.90;;;;;;4914482;29;19978;-89
2021/10/04 12:01:28;;;;;;;;;;;17.80;99.90;;;;;;4907868;29;20018;-90
2021/10/04 12:03:59;;;;;;;;;;;17.80;99.90;;;;;;4915252;29;19932;-90
2021/10/04 12:06:29;;;;;;;;;;;17.90;99.90;;;;;;4914674;29;19926;-87
2021/10/04 12:08:57;;;;;;;;;;;17.90;99.90;;;;;;4915965;29;19966;-92
2021/10/04 12:11:24;;;;;;;;;;;17.90;99.90;;;;;;4915827;29;19935;-89
2021/10/04 12:13:52;;;;;;;;;;;17.80;99.90;;;;;;4915340;29;19927;-89
2021/10/04 12:16:20;;;;;;;;;;;17.80;99.90;;;;;;4915526;29;19923;-90
2021/10/04 12:18:53;;;;;;;;;;;17.80;99.90;;;;;;4916337;29;20006;-91
2021/10/04 12:21:27;;;;;;;;;;;17.70;99.90;;;;;;4915894;29;19923;-90
2021/10/04 12:24:11;;;;;;;;;;;17.80;99.90;;;;;;4915887;29;19923;-90
2021/10/04 12:27:02;;;;;;;;;;;17.80;99.90;;;;;;4915426;29;19923;-89
2021/10/04 12:29:34;;;;;;;;;;;17.80;99.90;;;;;;4915800;29;19923;-90
2021/10/04 12:32:19;;;;;;;;;;;17.90;99.90;;;;;;4916139;29;19923;-92
2021/10/04 12:35:15;;;;;;;;;;;17.90;99.90;;;;;;4915188;29;19923;-89
2021/10/04 12:37:57;;;;;;;;;;;18.00;99.90;;;;;;4892497;29;20038;-90
2021/10/04 12:40:24;;;;;;;;;;;18.00;99.90;;;;;;4909660;29;19948;-89
2021/10/04 12:42:51;;;;;;;;;;;18.20;99.90;;;;;;4915925;29;19988;-90
2021/10/04 12:45:18;;;;;;;;;;;18.20;99.90;;;;;;4915046;29;20439;-88
2021/10/04 12:47:59;;;;;;;;;;;18.20;99.90;;;;;;4913857;29;19971;-91
2021/10/04 12:50:28;;;;;;;;;;;18.20;99.90;;;;;;4901698;29;19923;-90
2021/10/04 12:53:14;;;;;;;;;;;18.20;99.90;;;;;;4914850;29;19974;-92
2021/10/04 12:55:46;;;;;;;;;;;18.30;99.90;;;;;;4919046;29;19962;-90
2021/10/04 12:58:13;;;;;;;;;;;18.30;99.90;;;;;;4899827;29;19962;-88
2021/10/04 13:00:40;;;;;;;;;;;18.30;99.90;;;;;;4914926;29;19965;-89
2021/10/04 13:03:07;;;;;;;;;;;18.30;99.90;;;;;;4918589;29;19923;-89
2021/10/04 13:05:34;;;;;;;;;;;18.40;99.90;;;;;;4918246;29;19978;-90
2021/10/04 13:08:01;;;;;;;;;;;18.50;99.90;;;;;;4915325;29;19971;-91
2021/10/04 13:10:28;;;;;;;;;;;18.60;99.90;;;;;;4912298;29;20376;-91
2021/10/04 13:12:58;;;;;;;;;;;18.50;99.90;;;;;;4908587;29;20354;-93
2021/10/04 13:15:25;;;;;;;;;;;18.50;99.90;;;;;;4906382;29;20345;-94
2021/10/04 13:17:52;;;;;;;;;;;18.50;99.90;;;;;;4901177;29;20396;-89
2021/10/04 13:20:19;;;;;;;;;;;18.50;99.90;;;;;;4917309;29;19998;-91
2021/10/04 13:22:46;;;;;;;;;;;18.50;99.90;;;;;;4914983;29;19923;-89
2021/10/04 13:25:12;;;;;;;;;;;18.60;99.90;;;;;;4918625;29;19975;-89
2021/10/04 13:27:39;;;;;;;;;;;18.60;99.90;;;;;;4918113;29;19923;-89
2021/10/04 13:30:07;;;;;;;;;;;18.60;99.90;;;;;;4918467;29;19923;-88
2021/10/04 13:32:34;;;;;;;;;;;18.60;99.90;;;;;;4918673;29;20367;-94
2021/10/04 13:35:02;;;;;;;;;;;18.60;99.90;;;;;;4918848;29;20384;-87
2021/10/04 13:37:29;;;;;;;;;;;18.60;99.90;;;;;;4918401;29;19927;-91
2021/10/04 13:39:57;;;;;;;;;;;18.60;99.90;;;;;;4918535;29;19934;-89
2021/10/04 13:42:24;;;;;;;;;;;18.50;99.90;;;;;;4911614;29;20407;-91
2021/10/04 13:44:51;;;;;;;;;;;18.50;99.90;;;;;;4908737;29;19997;-92
2021/10/04 13:47:18;;;;;;;;;;;18.40;99.90;;;;;;4918964;29;20388;-92
2021/10/04 13:49:45;;;;;;;;;;;18.40;99.90;;;;;;4918614;29;19923;-91
2021/10/04 13:52:12;;;;;;;;;;;18.30;99.90;;;;;;4917837;29;19923;-89
2021/10/04 13:54:38;;;;;;;;;;;18.20;99.90;;;;;;4918055;29;19988;-89
2021/10/04 13:57:05;;;;;;;;;;;18.20;99.90;;;;;;4906744;29;20333;-91
2021/10/04 13:59:32;;;;;;;;;;;18.10;99.90;;;;;;4909471;29;19927;-90
2021/10/04 14:01:59;;;;;;;;;;;18.00;99.90;;;;;;4926396;29;19927;-88
2021/10/04 14:04:29;;;;;;;;;;;18.00;99.90;;;;;;4928470;29;19927;-91
2021/10/04 14:06:56;;;;;;;;;;;17.90;99.90;;;;;;4928211;29;19951;-91
2021/10/04 14:09:25;;;;;;;;;;;17.80;99.90;;;;;;4925737;29;19933;-93
2021/10/04 14:11:56;;;;;;;;;;;17.90;99.90;;;;;;4929981;29;19926;-93
2021/10/04 14:14:23;;;;;;;;;;;17.90;99.90;;;;;;4925498;29;19923;-90
2021/10/04 14:16:50;;;;;;;;;;;18.00;99.90;;;;;;4915567;29;19947;-94
2021/10/04 14:19:19;;;;;;;;;;;18.00;99.90;;;;;;4921819;29;19923;-92
2021/10/04 14:21:46;;;;;;;;;;;17.90;99.90;;;;;;4915323;29;19923;-90
2021/10/04 14:24:13;;;;;;;;;;;18.00;99.90;;;;;;4920064;29;19926;-90
2021/10/04 14:26:40;;;;;;;;;;;17.90;99.90;;;;;;4916160;29;19979;-91
2021/10/04 14:29:07;;;;;;;;;;;17.90;99.90;;;;;;4918944;29;19923;-91
2021/10/04 14:31:33;;;;;;;;;;;18.00;99.90;;;;;;4915612;29;20431;-93
2021/10/04 14:34:00;;;;;;;;;;;18.00;99.90;;;;;;4914143;29;19923;-94
2021/10/04 14:36:27;;;;;;;;;;;18.00;99.90;;;;;;4908180;29;19946;-91
2021/10/04 14:38:55;;;;;;;;;;;18.00;99.90;;;;;;4908941;29;19923;-93
2021/10/04 14:41:23;;;;;;;;;;;17.90;99.90;;;;;;4918578;29;19958;-92
2021/10/04 14:43:49;;;;;;;;;;;18.00;99.90;;;;;;4902705;29;20286;-96
2021/10/04 14:46:17;;;;;;;;;;;18.00;99.90;;;;;;4916790;29;20388;-94
2021/10/04 14:48:44;;;;;;;;;;;18.10;99.90;;;;;;4910952;29;19951;-93
2021/10/04 14:51:13;;;;;;;;;;;18.10;99.90;;;;;;4907500;29;20381;-93
2021/10/04 14:53:40;;;;;;;;;;;18.10;99.90;;;;;;4908123;29;19974;-95
2021/10/04 14:56:07;;;;;;;;;;;18.10;99.90;;;;;;4906445;29;19923;-96
2021/10/04 14:58:34;;;;;;;;;;;18.00;99.90;;;;;;4919414;29;19929;-96
2021/10/04 15:01:01;;;;;;;;;;;18.10;99.90;;;;;;4908877;29;19930;-95
2021/10/04 15:03:29;;;;;;;;;;;18.10;99.90;;;;;;4908986;29;19923;-96
2021/10/04 15:05:57;;;;;;;;;;;18.10;99.90;;;;;;4918736;29;20030;-96
2021/10/04 15:08:25;;;;;;;;;;;18.00;99.90;;;;;;4917224;29;19931;-96
2021/10/04 15:10:52;;;;;;;;;;;18.00;99.90;;;;;;4911683;29;19923;-96
2021/10/04 15:13:18;;;;;;;;;;;18.00;99.90;;;;;;4922603;29;19927;-95
2021/10/04 15:15:45;;;;;;;;;;;18.00;99.90;;;;;;4910979;29;19924;-96
2021/10/04 15:18:12;;;;;;;;;;;18.10;99.90;;;;;;4903771;29;19983;-96
2021/10/04 15:20:40;;;;;;;;;;;18.20;99.90;;;;;;4919078;29;19970;-94
2021/10/04 15:23:08;;;;;;;;;;;18.30;99.90;;;;;;4910681;29;19923;-94
2021/10/04 15:25:35;;;;;;;;;;;18.40;99.90;;;;;;4918627;29;19969;-96
2021/10/04 15:28:02;;;;;;;;;;;18.30;99.90;;;;;;4906390;29;19979;-95
2021/10/04 15:30:29;;;;;;;;;;;18.30;99.90;;;;;;4914138;29;19975;-96
2021/10/04 15:32:56;;;;;;;;;;;18.30;99.90;;;;;;4917675;29;19979;-96
2021/10/04 15:35:23;;;;;;;;;;;18.30;99.90;;;;;;4913849;29;19923;-96
2021/10/04 15:37:50;;;;;;;;;;;18.20;99.90;;;;;;4908081;29;19923;-96
2021/10/04 15:40:18;;;;;;;;;;;18.20;99.90;;;;;;4909404;29;19923;-96
2021/10/04 15:42:45;;;;;;;;;;;18.30;99.90;;;;;;4916424;29;19929;-96
2021/10/04 15:45:12;;;;;;;;;;;18.30;99.90;;;;;;4906241;29;19975;-94
2021/10/04 15:47:39;;;;;;;;;;;18.20;99.90;;;;;;4911559;29;19927;-96
2021/10/04 15:50:07;;;;;;;;;;;18.20;99.90;;;;;;4909869;29;19923;-95
2021/10/04 15:52:34;;;;;;;;;;;18.20;99.90;;;;;;4897163;29;19923;-96
2021/10/04 15:55:02;;;;;;;;;;;18.20;99.90;;;;;;4906512;29;19927;-95
2021/10/04 15:57:31;;;;;;;;;;;18.10;99.90;;;;;;4916928;29;19923;-96
2021/10/04 15:59:58;;;;;;;;;;;18.10;99.90;;;;;;4917307;29;20377;-96
2021/10/04 16:02:25;;;;;;;;;;;18.10;99.90;;;;;;4910584;29;20387;-96
2021/10/04 16:04:52;;;;;;;;;;;18.10;99.90;;;;;;4916666;29;19958;-93
2021/10/04 16:07:28;;;;;;;;;;;18.20;99.90;;;;;;4900143;29;19933;-96
2021/10/04 16:09:56;;;;;;;;;;;18.20;99.90;;;;;;4906286;29;19923;-96
2021/10/04 16:12:26;;;;;;;;;;;18.10;99.90;;;;;;4913104;29;20348;-96
2021/10/04 16:14:53;;;;;;;;;;;18.00;99.90;;;;;;4915383;29;19971;-96
2021/10/04 16:17:20;;;;;;;;;;;17.90;99.90;;;;;;4903481;29;19927;-96
2021/10/04 16:19:48;;;;;;;;;;;17.80;99.90;;;;;;4913690;29;19923;-96
2021/10/04 16:22:15;;;;;;;;;;;17.80;99.90;;;;;;4911842;29;19951;-95
2021/10/04 16:24:42;;;;;;;;;;;17.60;99.90;;;;;;4909304;29;19923;-96
2021/10/04 16:27:09;;;;;;;;;;;17.50;99.90;;;;;;4906134;29;19984;-93
2021/10/04 16:29:36;;;;;;;;;;;17.40;99.90;;;;;;4907363;29;19927;-96
2021/10/04 16:32:03;;;;;;;;;;;17.30;99.90;;;;;;4908836;29;19930;-96
2021/10/04 16:34:30;;;;;;;;;;;17.20;99.90;;;;;;4923703;29;19938;-96
2021/10/04 16:36:57;;;;;;;;;;;17.20;99.90;;;;;;4914978;29;19927;-96
2021/10/04 16:39:26;;;;;;;;;;;17.20;99.90;;;;;;4918207;29;19934;-96
2021/10/04 16:41:55;;;;;;;;;;;17.30;99.90;;;;;;4914001;29;20391;-95
2021/10/04 16:44:22;;;;;;;;;;;17.30;99.90;;;;;;4917505;29;19939;-94
2021/10/04 16:46:51;;;;;;;;;;;17.30;99.90;;;;;;4910978;29;19923;-95
2021/10/04 16:49:18;;;;;;;;;;;17.30;99.90;;;;;;4907258;29;19923;-95
2021/10/04 16:51:45;;;;;;;;;;;17.20;99.90;;;;;;4932789;29;19923;-96
2021/10/04 16:57:34;;;;;;;;;;;17.20;99.90;;;;;;4934922;29;19942;-96
2021/10/04 17:00:04;;;;;;;;;;;17.10;99.90;;;;;;4915136;29;20367;-92
2021/10/04 17:02:30;;;;;;;;;;;17.10;99.90;;;;;;4917783;29;19975;-90
2021/10/04 17:04:57;;;;;;;;;;;17.00;99.90;;;;;;4917922;29;19930;-90
2021/10/04 17:07:24;;;;;;;;;;;16.90;99.90;;;;;;4917485;29;19982;-91
2021/10/04 17:09:51;;;;;;;;;;;16.70;99.90;;;;;;4911877;29;19923;-89
2021/10/04 17:12:18;;;;;;;;;;;16.70;99.90;;;;;;4907156;29;20439;-89
2021/10/04 17:14:45;;;;;;;;;;;16.60;99.90;;;;;;4914147;29;19923;-90
2021/10/04 17:17:12;;;;;;;;;;;16.60;99.90;;;;;;4907559;29;19927;-88
2021/10/04 17:19:39;;;;;;;;;;;16.50;99.90;;;;;;4910254;29;19974;-88
2021/10/04 17:22:06;;;;;;;;;;;16.40;99.90;;;;;;4911996;29;19923;-90
2021/10/04 17:24:34;;;;;;;;;;;16.30;99.90;;;;;;4908296;29;19923;-90
2021/10/04 17:27:01;;;;;;;;;;;16.20;99.90;;;;;;4914977;29;19923;-88
2021/10/04 17:29:29;;;;;;;;;;;16.20;99.90;;;;;;4913400;29;19927;-87
2021/10/04 17:31:57;;;;;;;;;;;16.10;99.90;;;;;;4891084;29;19930;-88
2021/10/04 17:34:24;;;;;;;;;;;16.10;99.90;;;;;;4903388;29;19935;-87
2021/10/04 17:36:51;;;;;;;;;;;16.10;99.90;;;;;;4906924;29;19922;-86
2021/10/04 17:39:18;;;;;;;;;;;16.00;99.90;;;;;;4911161;29;19923;-89
2021/10/04 17:41:45;;;;;;;;;;;16.00;99.90;;;;;;4909994;29;19947;-89
2021/10/04 17:44:12;;;;;;;;;;;15.90;99.90;;;;;;4908993;29;19923;-90
2021/10/04 17:46:39;;;;;;;;;;;15.80;99.90;;;;;;4912428;29;19927;-91
2021/10/04 17:49:06;;;;;;;;;;;15.80;99.90;;;;;;4912077;29;20407;-89
2021/10/04 17:51:33;;;;;;;;;;;15.80;99.90;;;;;;4905540;29;20506;-88
2021/10/04 17:54:00;;;;;;;;;;;15.70;99.90;;;;;;4907523;29;20277;-91
2021/10/04 17:56:27;;;;;;;;;;;15.70;99.90;;;;;;4913178;29;19923;-92
2021/10/04 17:59:28;;;;;;;;;;;15.60;99.90;;;;;;4907298;29;19934;-96
2021/10/04 18:06:08;;;;;;;;;;;;;;;;;;;;;
2021/10/04 18:12:15;;;;;;;;;;;15.40;99.90;;;;;;4731806;30;19993;-92
2021/10/04 18:14:43;;;;;;;;;;;15.40;99.90;;;;;;4693156;30;19922;-94
2021/10/04 18:17:28;;;;;;;;;;;;;;;;;;;;;
2021/10/04 18:20:28;;;;;;;;;;;15.40;99.90;;;;;;4712665;30;19945;-96
2021/10/04 18:23:03;;;;;;;;;;;15.40;99.90;;;;;;4706660;30;20414;-96
2021/10/04 18:25:29;;;;;;;;;;;15.30;99.90;;;;;;4698184;30;19984;-91
2021/10/04 18:28:00;;;;;;;;;;;15.30;99.90;;;;;;4715560;30;19927;-93
2021/10/04 18:30:26;;;;;;;;;;;15.30;99.90;;;;;;4718048;30;19934;-91
2021/10/04 18:32:53;;;;;;;;;;;15.30;99.90;;;;;;4697958;30;19919;-91
2021/10/04 18:35:19;;;;;;;;;;;15.30;99.90;;;;;;4696892;30;19918;-94
2021/10/04 18:37:46;;;;;;;;;;;15.20;99.90;;;;;;4693756;30;19927;-95
2021/10/04 18:40:15;;;;;;;;;;;15.20;99.90;;;;;;4727590;30;19930;-91
2021/10/04 18:42:43;;;;;;;;;;;15.20;99.90;;;;;;4748265;30;19926;-92
2021/10/04 18:45:11;;;;;;;;;;;15.20;99.90;;;;;;4746550;30;19929;-92
2021/10/04 18:47:39;;;;;;;;;;;15.10;99.90;;;;;;4748542;30;19926;-93
2021/10/04 18:50:08;;;;;;;;;;;15.10;99.90;;;;;;4907184;29;19934;-92
2021/10/04 18:52:35;;;;;;;;;;;15.10;99.90;;;;;;4910110;29;19927;-94
2021/10/04 18:55:03;;;;;;;;;;;15.10;99.90;;;;;;4911292;29;19930;-92
2021/10/04 18:57:30;;;;;;;;;;;15.10;99.90;;;;;;4912799;29;19927;-94
2021/10/04 18:59:57;;;;;;;;;;;15.10;99.90;;;;;;4902414;29;19927;-92
2021/10/04 19:02:24;;;;;;;;;;;15.10;99.90;;;;;;4913361;29;19956;-94
2021/10/04 19:04:52;;;;;;;;;;;15.10;99.90;;;;;;4910996;29;19965;-93
2021/10/04 19:07:19;;;;;;;;;;;15.10;99.90;;;;;;4911481;29;19986;-93
2021/10/04 19:09:54;;;;;;;;;;;15.10;99.90;;;;;;4910824;29;19949;-90
2021/10/04 19:12:21;;;;;;;;;;;15.10;99.90;;;;;;4908330;29;20391;-91
2021/10/04 19:14:54;;;;;;;;;;;15.10;99.90;;;;;;4904893;29;19923;-90
2021/10/04 19:17:22;;;;;;;;;;;15.10;99.90;;;;;;4905515;29;19923;-89
2021/10/04 19:19:49;;;;;;;;;;;15.10;99.90;;;;;;4906463;29;19924;-89
2021/10/04 19:22:16;;;;;;;;;;;15.20;99.90;;;;;;4903918;29;19927;-89
2021/10/04 19:24:43;;;;;;;;;;;15.20;99.90;;;;;;4904853;29;19923;-89
2021/10/04 19:27:15;;;;;;;;;;;15.20;99.90;;;;;;4904587;29;19927;-91
2021/10/04 19:29:42;;;;;;;;;;;15.30;99.90;;;;;;4901109;29;19927;-88
2021/10/04 19:32:09;;;;;;;;;;;15.30;99.90;;;;;;4904228;29;19927;-88
2021/10/04 19:34:36;;;;;;;;;;;15.30;99.90;;;;;;4901380;29;20320;-91
2021/10/04 19:37:03;;;;;;;;;;;15.30;99.90;;;;;;4905394;29;19927;-93
2021/10/04 19:39:30;;;;;;;;;;;15.30;99.90;;;;;;4901306;29;19923;-92
2021/10/04 19:41:58;;;;;;;;;;;15.30;99.90;;;;;;4908884;29;20332;-91
2021/10/04 19:44:25;;;;;;;;;;;15.30;99.90;;;;;;4907129;29;19937;-89
2021/10/04 19:46:52;;;;;;;;;;;15.30;99.90;;;;;;4905370;29;19923;-91
2021/10/04 19:49:19;;;;;;;;;;;15.40;99.90;;;;;;4901477;29;19962;-89
2021/10/04 19:51:46;;;;;;;;;;;15.30;99.90;;;;;;4906577;29;19971;-91
2021/10/04 19:54:16;;;;;;;;;;;15.40;99.90;;;;;;4908710;29;19969;-93
2021/10/04 19:56:43;;;;;;;;;;;15.40;99.90;;;;;;4905731;29;19991;-89
2021/10/04 19:59:10;;;;;;;;;;;15.40;99.90;;;;;;4903882;29;19927;-90
2021/10/04 20:01:39;;;;;;;;;;;15.40;99.90;;;;;;4902152;29;20666;-92
2021/10/04 20:04:06;;;;;;;;;;;15.40;99.90;;;;;;4926116;29;19951;-91
2021/10/04 20:06:33;;;;;;;;;;;15.40;99.90;;;;;;4911591;29;19975;-92
2021/10/04 20:08:59;;;;;;;;;;;15.40;99.90;;;;;;4909946;29;19927;-92
2021/10/04 20:11:27;;;;;;;;;;;15.50;99.90;;;;;;4906816;29;19930;-91
2021/10/04 20:13:54;;;;;;;;;;;15.50;99.90;;;;;;4910877;29;19923;-89
2021/10/04 20:16:22;;;;;;;;;;;15.50;99.90;;;;;;4909278;29;19963;-90
2021/10/04 20:18:49;;;;;;;;;;;15.50;99.90;;;;;;4911203;29;19975;-90
2021/10/04 20:21:18;;;;;;;;;;;15.60;99.90;;;;;;4907999;29;19926;-89
2021/10/04 20:23:45;;;;;;;;;;;15.60;99.90;;;;;;4913110;29;20344;-94
2021/10/04 20:26:19;;;;;;;;;;;15.60;99.90;;;;;;4911253;29;19986;-94
2021/10/04 20:28:46;;;;;;;;;;;15.70;99.90;;;;;;4907178;29;19923;-94
2021/10/04 20:31:13;;;;;;;;;;;15.70;99.90;;;;;;4912148;29;20459;-91
2021/10/04 20:33:40;;;;;;;;;;;15.70;99.90;;;;;;4910519;29;20014;-91
2021/10/04 20:36:08;;;;;;;;;;;15.70;99.90;;;;;;4913984;29;20026;-95
2021/10/04 20:38:35;;;;;;;;;;;15.70;99.90;;;;;;4911243;29;19974;-92
2021/10/04 20:41:02;;;;;;;;;;;15.70;99.90;;;;;;4915231;29;19927;-92